sensor_id;sensor_type;location;lat;lon;timestamp;pressure;altitude;pressure_sealevel;temperature;humidity
10881;BME280;5493;48.884;8.338;2023-03-21T00:00:55;100489.13;;;12.02;100.00
10881;BME280;5493;48.884;8.338;2023-03-21T00:03:22;100489.97;;;12.02;100.00
10881;BME280;5493;48.884;8.338;2023-03-21T00:05:51;100486.31;;;12.15;100.00
10881;BME280;5493;48.884;8.338;2023-03-21T00:08:18;100481.88;;;12.20;100.00
10881;BME280;5493;48.884;8.338;2023-03-21T00:10:44;100474.22;;;12.17;100.00
10881;BME280;5493;48.884;8.338;2023-03-21T00:13:11;100472.84;;;12.26;100.00
10881;BME280;5493;48.884;8.338;2023-03-21T00:15:38;100476.31;;;12.15;100.00
10881;BME280;5493;48.884;8.338;2023-03-21T00:18:14;100472.53;;;12.34;100.00
10881;BME280;5493;48.884;8.338;2023-03-21T00:20:41;100468.59;;;12.37;100.00
10881;BME280;5493;48.884;8.338;2023-03-21T00:23:13;100468.50;;;12.44;100.00
10881;BME280;5493;48.884;8.338;2023-03-21T00:25:40;100463.09;;;12.25;100.00
10881;BME280;5493;48.884;8.338;2023-03-21T00:28:07;100463.75;;;12.39;100.00
10881;BME280;5493;48.884;8.338;2023-03-21T00:30:33;100466.31;;;12.34;100.00
10881;BME280;5493;48.884;8.338;2023-03-21T00:33:00;100469.47;;;12.31;100.00
10881;BME280;5493;48.884;8.338;2023-03-21T00:35:26;100465.94;;;12.30;100.00
10881;BME280;5493;48.884;8.338;2023-03-21T00:37:53;100461.44;;;12.06;100.00
10881;BME280;5493;48.884;8.338;2023-03-21T00:40:21;100456.94;;;12.00;100.00
10881;BME280;5493;48.884;8.338;2023-03-21T00:42:47;100460.63;;;12.24;100.00
10881;BME280;5493;48.884;8.338;2023-03-21T00:45:14;100455.06;;;12.19;100.00
10881;BME280;5493;48.884;8.338;2023-03-21T00:47:43;100451.00;;;12.10;100.00
10881;BME280;5493;48.884;8.338;2023-03-21T00:50:10;100448.97;;;12.05;100.00
10881;BME280;5493;48.884;8.338;2023-03-21T00:52:37;100440.50;;;12.02;100.00
10881;BME280;5493;48.884;8.338;2023-03-21T00:55:04;100442.81;;;11.98;100.00
10881;BME280;5493;48.884;8.338;2023-03-21T00:57:32;100436.53;;;12.04;100.00
10881;BME280;5493;48.884;8.338;2023-03-21T00:59:59;100443.19;;;12.02;100.00
10881;BME280;5493;48.884;8.338;2023-03-21T01:02:25;100436.00;;;11.96;100.00
10881;BME280;5493;48.884;8.338;2023-03-21T01:04:52;100435.09;;;12.02;100.00
10881;BME280;5493;48.884;8.338;2023-03-21T01:07:19;100442.00;;;11.98;100.00
10881;BME280;5493;48.884;8.338;2023-03-21T01:09:46;100428.03;;;11.82;100.00
10881;BME280;5493;48.884;8.338;2023-03-21T01:12:13;100436.66;;;11.91;100.00
10881;BME280;5493;48.884;8.338;2023-03-21T01:14:41;100428.78;;;11.90;100.00
10881;BME280;5493;48.884;8.338;2023-03-21T01:17:07;100430.59;;;11.96;100.00
10881;BME280;5493;48.884;8.338;2023-03-21T01:19:34;100433.00;;;11.86;100.00
10881;BME280;5493;48.884;8.338;2023-03-21T01:22:00;100431.72;;;11.88;100.00
10881;BME280;5493;48.884;8.338;2023-03-21T01:24:27;100428.84;;;11.83;100.00
10881;BME280;5493;48.884;8.338;2023-03-21T01:26:53;100426.91;;;11.90;100.00
10881;BME280;5493;48.884;8.338;2023-03-21T01:29:20;100425.56;;;11.99;100.00
10881;BME280;5493;48.884;8.338;2023-03-21T01:31:48;100427.06;;;11.95;100.00
10881;BME280;5493;48.884;8.338;2023-03-21T01:34:14;100425.03;;;11.91;100.00
10881;BME280;5493;48.884;8.338;2023-03-21T01:36:41;100424.66;;;11.87;100.00
10881;BME280;5493;48.884;8.338;2023-03-21T01:39:07;100425.19;;;11.77;100.00
10881;BME280;5493;48.884;8.338;2023-03-21T01:41:36;100428.25;;;11.81;100.00
10881;BME280;5493;48.884;8.338;2023-03-21T01:44:03;100427.50;;;11.74;100.00
10881;BME280;5493;48.884;8.338;2023-03-21T01:46:37;100424.00;;;11.67;100.00
10881;BME280;5493;48.884;8.338;2023-03-21T01:49:11;100419.84;;;11.46;100.00
10881;BME280;5493;48.884;8.338;2023-03-21T01:51:43;100425.69;;;11.43;100.00
10881;BME280;5493;48.884;8.338;2023-03-21T01:54:14;100415.94;;;11.42;100.00
10881;BME280;5493;48.884;8.338;2023-03-21T01:56:44;100412.72;;;11.52;100.00
10881;BME280;5493;48.884;8.338;2023-03-21T01:59:17;100409.09;;;11.64;100.00
10881;BME280;5493;48.884;8.338;2023-03-21T02:01:46;100413.28;;;11.60;100.00
10881;BME280;5493;48.884;8.338;2023-03-21T02:04:15;100409.50;;;11.61;100.00
10881;BME280;5493;48.884;8.338;2023-03-21T02:06:49;100405.06;;;11.73;100.00
10881;BME280;5493;48.884;8.338;2023-03-21T02:09:20;100401.94;;;11.70;100.00
10881;BME280;5493;48.884;8.338;2023-03-21T02:11:48;100404.97;;;11.80;100.00
10881;BME280;5493;48.884;8.338;2023-03-21T02:14:17;100405.34;;;11.83;100.00
10881;BME280;5493;48.884;8.338;2023-03-21T02:16:52;100394.63;;;11.77;100.00
10881;BME280;5493;48.884;8.338;2023-03-21T02:22:42;100387.19;;;11.72;100.00
10881;BME280;5493;48.884;8.338;2023-03-21T02:25:27;100392.38;;;11.74;100.00
10881;BME280;5493;48.884;8.338;2023-03-21T02:28:08;100389.22;;;11.77;100.00
10881;BME280;5493;48.884;8.338;2023-03-21T02:30:48;100378.47;;;11.70;100.00
10881;BME280;5493;48.884;8.338;2023-03-21T02:34:02;100376.19;;;11.74;100.00
10881;BME280;5493;48.884;8.338;2023-03-21T02:37:09;100382.03;;;11.71;100.00
10881;BME280;5493;48.884;8.338;2023-03-21T02:39:54;100376.38;;;11.72;100.00
10881;BME280;5493;48.884;8.338;2023-03-21T02:42:28;100373.94;;;11.71;100.00
10881;BME280;5493;48.884;8.338;2023-03-21T02:45:01;100382.47;;;11.68;100.00
10881;BME280;5493;48.884;8.338;2023-03-21T02:47:32;100372.91;;;11.65;100.00
10881;BME280;5493;48.884;8.338;2023-03-21T02:50:07;100368.50;;;11.53;100.00
10881;BME280;5493;48.884;8.338;2023-03-21T02:52:38;100361.97;;;11.60;100.00
10881;BME280;5493;48.884;8.338;2023-03-21T02:55:09;100368.25;;;11.54;100.00
10881;BME280;5493;48.884;8.338;2023-03-21T02:57:38;100366.25;;;11.50;100.00
10881;BME280;5493;48.884;8.338;2023-03-21T03:00:08;100367.59;;;11.59;100.00
10881;BME280;5493;48.884;8.338;2023-03-21T03:02:37;100366.16;;;11.56;100.00
10881;BME280;5493;48.884;8.338;2023-03-21T03:05:12;100366.44;;;11.48;100.00
10881;BME280;5493;48.884;8.338;2023-03-21T03:07:50;100361.44;;;11.52;100.00
10881;BME280;5493;48.884;8.338;2023-03-21T03:10:30;100355.72;;;11.42;100.00
10881;BME280;5493;48.884;8.338;2023-03-21T03:13:09;100358.31;;;11.30;100.00
10881;BME280;5493;48.884;8.338;2023-03-21T03:15:48;100356.38;;;11.37;100.00
10881;BME280;5493;48.884;8.338;2023-03-21T03:18:22;100352.53;;;11.26;100.00
10881;BME280;5493;48.884;8.338;2023-03-21T03:20:58;100352.25;;;11.34;100.00
10881;BME280;5493;48.884;8.338;2023-03-21T03:23:30;100348.88;;;11.21;100.00
10881;BME280;5493;48.884;8.338;2023-03-21T03:26:03;100348.56;;;11.29;100.00
10881;BME280;5493;48.884;8.338;2023-03-21T03:28:35;100347.91;;;11.33;100.00
10881;BME280;5493;48.884;8.338;2023-03-21T03:31:03;100349.72;;;11.40;100.00
10881;BME280;5493;48.884;8.338;2023-03-21T03:33:34;100350.00;;;11.31;100.00
10881;BME280;5493;48.884;8.338;2023-03-21T03:36:03;100347.03;;;11.15;100.00
10881;BME280;5493;48.884;8.338;2023-03-21T03:38:33;100349.91;;;11.20;100.00
10881;BME280;5493;48.884;8.338;2023-03-21T03:41:06;100344.31;;;10.97;100.00
10881;BME280;5493;48.884;8.338;2023-03-21T03:43:40;100345.47;;;10.82;100.00
10881;BME280;5493;48.884;8.338;2023-03-21T03:46:12;100337.16;;;10.53;100.00
10881;BME280;5493;48.884;8.338;2023-03-21T03:48:42;100336.97;;;10.54;100.00
10881;BME280;5493;48.884;8.338;2023-03-21T03:51:16;100338.75;;;10.67;100.00
10881;BME280;5493;48.884;8.338;2023-03-21T03:53:51;100349.56;;;10.60;100.00
10881;BME280;5493;48.884;8.338;2023-03-21T03:56:19;100353.31;;;10.59;100.00
10881;BME280;5493;48.884;8.338;2023-03-21T03:58:47;100353.56;;;10.51;100.00
10881;BME280;5493;48.884;8.338;2023-03-21T04:01:14;100355.53;;;10.38;100.00
10881;BME280;5493;48.884;8.338;2023-03-21T04:03:44;100354.06;;;10.35;100.00
10881;BME280;5493;48.884;8.338;2023-03-21T04:06:12;100351.25;;;10.23;100.00
10881;BME280;5493;48.884;8.338;2023-03-21T04:08:39;100355.47;;;10.00;100.00
10881;BME280;5493;48.884;8.338;2023-03-21T04:11:07;100362.56;;;9.94;100.00
10881;BME280;5493;48.884;8.338;2023-03-21T04:13:34;100362.78;;;9.86;100.00
10881;BME280;5493;48.884;8.338;2023-03-21T04:16:00;100354.69;;;9.93;100.00
10881;BME280;5493;48.884;8.338;2023-03-21T04:18:27;100356.22;;;9.69;100.00
10881;BME280;5493;48.884;8.338;2023-03-21T04:20:54;100359.75;;;9.69;100.00
10881;BME280;5493;48.884;8.338;2023-03-21T04:23:22;100355.41;;;9.68;100.00
10881;BME280;5493;48.884;8.338;2023-03-21T04:25:48;100351.69;;;9.69;100.00
10881;BME280;5493;48.884;8.338;2023-03-21T04:28:17;100354.16;;;9.64;100.00
10881;BME280;5493;48.884;8.338;2023-03-21T04:30:47;100350.19;;;9.73;100.00
10881;BME280;5493;48.884;8.338;2023-03-21T04:33:15;100351.41;;;9.77;100.00
10881;BME280;5493;48.884;8.338;2023-03-21T04:35:41;100358.25;;;9.73;100.00
10881;BME280;5493;48.884;8.338;2023-03-21T04:38:09;100354.34;;;9.76;100.00
10881;BME280;5493;48.884;8.338;2023-03-21T04:40:36;100356.75;;;9.97;100.00
10881;BME280;5493;48.884;8.338;2023-03-21T04:43:02;100355.91;;;9.97;100.00
10881;BME280;5493;48.884;8.338;2023-03-21T04:45:30;100352.66;;;9.81;100.00
10881;BME280;5493;48.884;8.338;2023-03-21T04:47:57;100352.00;;;9.93;100.00
10881;BME280;5493;48.884;8.338;2023-03-21T04:50:23;100355.75;;;9.85;100.00
10881;BME280;5493;48.884;8.338;2023-03-21T04:52:50;100348.03;;;10.02;100.00
10881;BME280;5493;48.884;8.338;2023-03-21T04:55:17;100346.41;;;9.87;100.00
10881;BME280;5493;48.884;8.338;2023-03-21T04:57:46;100345.09;;;10.03;100.00
10881;BME280;5493;48.884;8.338;2023-03-21T05:00:13;100350.75;;;9.88;100.00
10881;BME280;5493;48.884;8.338;2023-03-21T05:02:41;100346.69;;;9.73;100.00
10881;BME280;5493;48.884;8.338;2023-03-21T05:05:08;100338.97;;;9.83;100.00
10881;BME280;5493;48.884;8.338;2023-03-21T05:07:37;100337.25;;;9.95;100.00
10881;BME280;5493;48.884;8.338;2023-03-21T05:10:05;100334.81;;;9.87;100.00
10881;BME280;5493;48.884;8.338;2023-03-21T05:12:32;100328.41;;;9.81;100.00
10881;BME280;5493;48.884;8.338;2023-03-21T05:14:58;100334.69;;;9.69;100.00
10881;BME280;5493;48.884;8.338;2023-03-21T05:17:25;100331.34;;;9.73;100.00
10881;BME280;5493;48.884;8.338;2023-03-21T05:19:54;100330.59;;;9.53;100.00
10881;BME280;5493;48.884;8.338;2023-03-21T05:22:22;100331.63;;;9.52;100.00
10881;BME280;5493;48.884;8.338;2023-03-21T05:24:51;100331.56;;;9.72;100.00
10881;BME280;5493;48.884;8.338;2023-03-21T05:27:20;100327.41;;;9.76;100.00
10881;BME280;5493;48.884;8.338;2023-03-21T05:29:59;100323.94;;;9.69;100.00
10881;BME280;5493;48.884;8.338;2023-03-21T05:32:26;100324.81;;;9.50;100.00
10881;BME280;5493;48.884;8.338;2023-03-21T05:34:54;100325.84;;;9.42;100.00
10881;BME280;5493;48.884;8.338;2023-03-21T05:37:21;100328.59;;;9.16;100.00
10881;BME280;5493;48.884;8.338;2023-03-21T05:39:48;100331.47;;;9.27;100.00
10881;BME280;5493;48.884;8.338;2023-03-21T05:42:15;100326.13;;;9.14;100.00
10881;BME280;5493;48.884;8.338;2023-03-21T05:44:42;100336.66;;;9.16;100.00
10881;BME280;5493;48.884;8.338;2023-03-21T05:47:09;100329.66;;;9.02;100.00
10881;BME280;5493;48.884;8.338;2023-03-21T05:49:36;100335.44;;;8.99;100.00
10881;BME280;5493;48.884;8.338;2023-03-21T05:52:04;100340.34;;;9.34;100.00
10881;BME280;5493;48.884;8.338;2023-03-21T05:54:30;100336.47;;;9.17;100.00
10881;BME280;5493;48.884;8.338;2023-03-21T05:56:57;100341.44;;;9.14;100.00
10881;BME280;5493;48.884;8.338;2023-03-21T05:59:24;100339.34;;;9.29;100.00
10881;BME280;5493;48.884;8.338;2023-03-21T06:01:50;100340.59;;;9.13;100.00
10881;BME280;5493;48.884;8.338;2023-03-21T06:04:17;100350.97;;;8.77;100.00
10881;BME280;5493;48.884;8.338;2023-03-21T06:06:43;100350.75;;;8.98;100.00
10881;BME280;5493;48.884;8.338;2023-03-21T06:09:11;100358.81;;;8.98;100.00
10881;BME280;5493;48.884;8.338;2023-03-21T06:11:42;100359.66;;;8.99;100.00
10881;BME280;5493;48.884;8.338;2023-03-21T06:14:09;100356.31;;;9.16;100.00
10881;BME280;5493;48.884;8.338;2023-03-21T06:16:36;100355.50;;;9.22;100.00
10881;BME280;5493;48.884;8.338;2023-03-21T06:19:02;100355.91;;;9.26;100.00
10881;BME280;5493;48.884;8.338;2023-03-21T06:21:29;100357.75;;;9.38;100.00
10881;BME280;5493;48.884;8.338;2023-03-21T06:23:56;100357.91;;;9.57;100.00
10881;BME280;5493;48.884;8.338;2023-03-21T06:26:24;100356.69;;;9.46;100.00
10881;BME280;5493;48.884;8.338;2023-03-21T06:28:51;100359.41;;;9.26;100.00
10881;BME280;5493;48.884;8.338;2023-03-21T06:31:18;100354.44;;;9.30;100.00
10881;BME280;5493;48.884;8.338;2023-03-21T06:33:46;100356.22;;;9.69;100.00
10881;BME280;5493;48.884;8.338;2023-03-21T06:36:13;100355.19;;;9.63;100.00
10881;BME280;5493;48.884;8.338;2023-03-21T06:38:40;100355.16;;;9.83;100.00
10881;BME280;5493;48.884;8.338;2023-03-21T06:41:08;100364.50;;;10.25;100.00
10881;BME280;5493;48.884;8.338;2023-03-21T06:43:37;100367.53;;;10.42;100.00
10881;BME280;5493;48.884;8.338;2023-03-21T06:46:03;100353.53;;;10.58;100.00
10881;BME280;5493;48.884;8.338;2023-03-21T06:48:31;100360.47;;;10.72;100.00
10881;BME280;5493;48.884;8.338;2023-03-21T06:50:57;100358.09;;;10.82;100.00
10881;BME280;5493;48.884;8.338;2023-03-21T06:53:24;100361.88;;;11.06;100.00
10881;BME280;5493;48.884;8.338;2023-03-21T06:55:53;100358.16;;;11.07;100.00
10881;BME280;5493;48.884;8.338;2023-03-21T06:58:19;100353.47;;;10.96;100.00
10881;BME280;5493;48.884;8.338;2023-03-21T07:00:48;100359.28;;;10.93;100.00
10881;BME280;5493;48.884;8.338;2023-03-21T07:03:15;100360.13;;;11.36;100.00
10881;BME280;5493;48.884;8.338;2023-03-21T07:05:42;100356.19;;;11.39;100.00
10881;BME280;5493;48.884;8.338;2023-03-21T07:08:09;100346.66;;;11.54;100.00
10881;BME280;5493;48.884;8.338;2023-03-21T07:10:37;100350.75;;;11.81;100.00
10881;BME280;5493;48.884;8.338;2023-03-21T07:13:04;100345.97;;;11.59;100.00
10881;BME280;5493;48.884;8.338;2023-03-21T07:15:31;100342.91;;;11.55;100.00
10881;BME280;5493;48.884;8.338;2023-03-21T07:18:00;100342.41;;;11.83;100.00
10881;BME280;5493;48.884;8.338;2023-03-21T07:20:26;100339.91;;;12.00;100.00
10881;BME280;5493;48.884;8.338;2023-03-21T07:22:53;100332.94;;;11.92;100.00
10881;BME280;5493;48.884;8.338;2023-03-21T07:25:20;100327.47;;;12.28;100.00
10881;BME280;5493;48.884;8.338;2023-03-21T07:27:46;100319.63;;;12.39;100.00
10881;BME280;5493;48.884;8.338;2023-03-21T07:30:14;100325.88;;;12.39;100.00
10881;BME280;5493;48.884;8.338;2023-03-21T07:32:40;100320.97;;;12.59;100.00
10881;BME280;5493;48.884;8.338;2023-03-21T07:35:11;100318.97;;;12.55;100.00
10881;BME280;5493;48.884;8.338;2023-03-21T07:37:37;100319.56;;;12.15;100.00
10881;BME280;5493;48.884;8.338;2023-03-21T07:40:05;100317.94;;;11.96;100.00
10881;BME280;5493;48.884;8.338;2023-03-21T07:42:34;100319.16;;;12.12;100.00
10881;BME280;5493;48.884;8.338;2023-03-21T07:45:01;100311.56;;;12.50;100.00
10881;BME280;5493;48.884;8.338;2023-03-21T07:47:29;100316.84;;;12.57;100.00
10881;BME280;5493;48.884;8.338;2023-03-21T07:49:56;100317.09;;;12.67;100.00
10881;BME280;5493;48.884;8.338;2023-03-21T07:52:24;100323.91;;;13.11;100.00
10881;BME280;5493;48.884;8.338;2023-03-21T07:54:52;100327.66;;;13.10;100.00
10881;BME280;5493;48.884;8.338;2023-03-21T07:57:18;100326.00;;;13.09;100.00
10881;BME280;5493;48.884;8.338;2023-03-21T07:59:45;100328.97;;;13.30;100.00
10881;BME280;5493;48.884;8.338;2023-03-21T08:02:12;100329.34;;;13.86;100.00
10881;BME280;5493;48.884;8.338;2023-03-21T08:04:40;100330.91;;;13.82;100.00
10881;BME280;5493;48.884;8.338;2023-03-21T08:07:06;100334.56;;;14.15;100.00
10881;BME280;5493;48.884;8.338;2023-03-21T08:09:35;100331.09;;;14.32;100.00
10881;BME280;5493;48.884;8.338;2023-03-21T08:12:02;100330.09;;;14.09;100.00
10881;BME280;5493;48.884;8.338;2023-03-21T08:14:29;100330.78;;;14.16;100.00
10881;BME280;5493;48.884;8.338;2023-03-21T08:16:55;100326.19;;;14.45;100.00
10881;BME280;5493;48.884;8.338;2023-03-21T08:19:22;100326.44;;;14.44;100.00
10881;BME280;5493;48.884;8.338;2023-03-21T08:21:48;100327.41;;;14.83;100.00
10881;BME280;5493;48.884;8.338;2023-03-21T08:24:16;100328.88;;;14.73;100.00
10881;BME280;5493;48.884;8.338;2023-03-21T08:26:44;100329.19;;;14.60;100.00
10881;BME280;5493;48.884;8.338;2023-03-21T08:29:12;100326.69;;;14.42;100.00
10881;BME280;5493;48.884;8.338;2023-03-21T08:31:39;100328.97;;;14.78;100.00
10881;BME280;5493;48.884;8.338;2023-03-21T08:34:06;100330.25;;;15.09;100.00
10881;BME280;5493;48.884;8.338;2023-03-21T08:36:34;100335.19;;;15.12;100.00
10881;BME280;5493;48.884;8.338;2023-03-21T08:39:02;100325.56;;;15.21;100.00
10881;BME280;5493;48.884;8.338;2023-03-21T08:41:30;100326.75;;;14.92;100.00
10881;BME280;5493;48.884;8.338;2023-03-21T08:43:58;100331.00;;;14.88;100.00
10881;BME280;5493;48.884;8.338;2023-03-21T08:46:24;100319.13;;;15.27;100.00
10881;BME280;5493;48.884;8.338;2023-03-21T08:48:51;100329.53;;;15.69;100.00
10881;BME280;5493;48.884;8.338;2023-03-21T08:51:18;100328.13;;;15.88;100.00
10881;BME280;5493;48.884;8.338;2023-03-21T08:53:45;100327.19;;;15.99;100.00
10881;BME280;5493;48.884;8.338;2023-03-21T08:56:11;100325.91;;;15.63;100.00
10881;BME280;5493;48.884;8.338;2023-03-21T08:58:38;100325.78;;;15.53;100.00
10881;BME280;5493;48.884;8.338;2023-03-21T09:01:06;100329.66;;;15.41;100.00
10881;BME280;5493;48.884;8.338;2023-03-21T09:03:35;100314.81;;;15.48;100.00
10881;BME280;5493;48.884;8.338;2023-03-21T09:06:02;100325.03;;;15.41;100.00
10881;BME280;5493;48.884;8.338;2023-03-21T09:08:29;100327.63;;;14.98;100.00
10881;BME280;5493;48.884;8.338;2023-03-21T09:10:55;100323.75;;;15.27;100.00
10881;BME280;5493;48.884;8.338;2023-03-21T09:13:23;100332.56;;;15.17;100.00
10881;BME280;5493;48.884;8.338;2023-03-21T09:15:50;100327.97;;;15.18;100.00
10881;BME280;5493;48.884;8.338;2023-03-21T09:18:18;100327.16;;;15.56;100.00
10881;BME280;5493;48.884;8.338;2023-03-21T09:21:08;100335.72;;;15.64;100.00
10881;BME280;5493;48.884;8.338;2023-03-21T09:23:37;100326.16;;;15.07;100.00
10881;BME280;5493;48.884;8.338;2023-03-21T09:26:04;100335.28;;;15.17;100.00
10881;BME280;5493;48.884;8.338;2023-03-21T09:28:30;100335.91;;;15.41;100.00
10881;BME280;5493;48.884;8.338;2023-03-21T09:30:57;100331.16;;;14.98;100.00
10881;BME280;5493;48.884;8.338;2023-03-21T09:33:25;100333.63;;;14.83;100.00
10881;BME280;5493;48.884;8.338;2023-03-21T09:35:54;100333.41;;;15.18;100.00
10881;BME280;5493;48.884;8.338;2023-03-21T09:38:21;100342.22;;;15.08;100.00
10881;BME280;5493;48.884;8.338;2023-03-21T09:41:02;100331.91;;;14.77;100.00
10881;BME280;5493;48.884;8.338;2023-03-21T09:43:42;100340.44;;;14.69;100.00
10881;BME280;5493;48.884;8.338;2023-03-21T09:46:21;100342.66;;;14.55;100.00
10881;BME280;5493;48.884;8.338;2023-03-21T09:48:55;100334.69;;;14.49;100.00
10881;BME280;5493;48.884;8.338;2023-03-21T09:51:25;100345.88;;;14.52;100.00
10881;BME280;5493;48.884;8.338;2023-03-21T09:53:55;100337.09;;;14.78;100.00
10881;BME280;5493;48.884;8.338;2023-03-21T09:56:23;100339.00;;;14.78;100.00
10881;BME280;5493;48.884;8.338;2023-03-21T09:58:53;100331.34;;;14.75;100.00
10881;BME280;5493;48.884;8.338;2023-03-21T10:01:25;100339.81;;;14.95;100.00
10881;BME280;5493;48.884;8.338;2023-03-21T10:03:56;100332.25;;;14.97;100.00
10881;BME280;5493;48.884;8.338;2023-03-21T10:06:25;100335.44;;;15.27;100.00
10881;BME280;5493;48.884;8.338;2023-03-21T10:08:56;100341.78;;;15.16;100.00
10881;BME280;5493;48.884;8.338;2023-03-21T10:11:27;100341.03;;;14.88;100.00
10881;BME280;5493;48.884;8.338;2023-03-21T10:13:59;100345.09;;;15.18;100.00
10881;BME280;5493;48.884;8.338;2023-03-21T10:16:29;100335.88;;;14.86;100.00
10881;BME280;5493;48.884;8.338;2023-03-21T10:19:03;100333.50;;;14.90;100.00
10881;BME280;5493;48.884;8.338;2023-03-21T10:21:31;100329.34;;;14.87;100.00
10881;BME280;5493;48.884;8.338;2023-03-21T10:23:59;100319.22;;;14.66;100.00
10881;BME280;5493;48.884;8.338;2023-03-21T10:26:27;100322.84;;;15.05;100.00
10881;BME280;5493;48.884;8.338;2023-03-21T10:28:57;100311.94;;;15.38;100.00
10881;BME280;5493;48.884;8.338;2023-03-21T10:31:27;100310.56;;;15.36;100.00
10881;BME280;5493;48.884;8.338;2023-03-21T10:33:56;100316.00;;;15.74;100.00
10881;BME280;5493;48.884;8.338;2023-03-21T10:36:29;100313.34;;;15.79;100.00
10881;BME280;5493;48.884;8.338;2023-03-21T10:39:01;100305.69;;;16.19;100.00
10881;BME280;5493;48.884;8.338;2023-03-21T10:41:29;100311.41;;;16.23;100.00
10881;BME280;5493;48.884;8.338;2023-03-21T10:44:07;100305.47;;;16.53;100.00
10881;BME280;5493;48.884;8.338;2023-03-21T10:46:35;100296.50;;;16.84;100.00
10881;BME280;5493;48.884;8.338;2023-03-21T10:49:02;100286.94;;;16.23;100.00
10881;BME280;5493;48.884;8.338;2023-03-21T10:51:32;100289.38;;;16.78;100.00
10881;BME280;5493;48.884;8.338;2023-03-21T10:54:04;100277.16;;;17.17;100.00
10881;BME280;5493;48.884;8.338;2023-03-21T10:56:35;100291.00;;;17.16;100.00
10881;BME280;5493;48.884;8.338;2023-03-21T10:59:05;100281.44;;;17.55;100.00
10881;BME280;5493;48.884;8.338;2023-03-21T11:01:35;100278.66;;;17.45;100.00
10881;BME280;5493;48.884;8.338;2023-03-21T11:04:07;100278.16;;;17.53;100.00
10881;BME280;5493;48.884;8.338;2023-03-21T11:06:38;100280.41;;;17.66;100.00
10881;BME280;5493;48.884;8.338;2023-03-21T11:09:07;100280.47;;;17.72;100.00
10881;BME280;5493;48.884;8.338;2023-03-21T11:11:39;100275.78;;;17.67;100.00
10881;BME280;5493;48.884;8.338;2023-03-21T11:14:11;100267.44;;;17.99;100.00
10881;BME280;5493;48.884;8.338;2023-03-21T11:16:49;100274.28;;;18.06;100.00
10881;BME280;5493;48.884;8.338;2023-03-21T11:19:17;100267.84;;;18.78;100.00
10881;BME280;5493;48.884;8.338;2023-03-21T11:21:46;100268.13;;;18.72;100.00
10881;BME280;5493;48.884;8.338;2023-03-21T11:24:15;100267.31;;;18.71;100.00
10881;BME280;5493;48.884;8.338;2023-03-21T11:26:43;100260.69;;;19.28;100.00
10881;BME280;5493;48.884;8.338;2023-03-21T11:29:21;100256.84;;;19.29;98.77
10881;BME280;5493;48.884;8.338;2023-03-21T11:31:49;100255.00;;;18.94;100.00
10881;BME280;5493;48.884;8.338;2023-03-21T11:34:24;100248.81;;;19.68;98.13
10881;BME280;5493;48.884;8.338;2023-03-21T11:36:57;100255.78;;;20.43;97.08
10881;BME280;5493;48.884;8.338;2023-03-21T11:39:31;100252.63;;;20.59;92.00
10881;BME280;5493;48.884;8.338;2023-03-21T11:41:58;100241.66;;;20.93;96.68
10881;BME280;5493;48.884;8.338;2023-03-21T11:44:27;100245.50;;;20.20;90.74
10881;BME280;5493;48.884;8.338;2023-03-21T11:46:55;100241.66;;;21.22;90.95
10881;BME280;5493;48.884;8.338;2023-03-21T11:49:23;100235.97;;;21.85;94.92
10881;BME280;5493;48.884;8.338;2023-03-21T11:51:58;100225.94;;;21.75;93.11
10881;BME280;5493;48.884;8.338;2023-03-21T11:54:37;100227.66;;;21.90;88.61
10881;BME280;5493;48.884;8.338;2023-03-21T11:57:11;100217.09;;;21.59;95.40
10881;BME280;5493;48.884;8.338;2023-03-21T11:59:46;100220.28;;;21.90;86.52
10881;BME280;5493;48.884;8.338;2023-03-21T12:02:38;100211.03;;;21.39;86.35
10881;BME280;5493;48.884;8.338;2023-03-21T12:05:13;100207.13;;;21.21;87.88
10881;BME280;5493;48.884;8.338;2023-03-21T12:07:52;100195.88;;;21.65;85.20
10881;BME280;5493;48.884;8.338;2023-03-21T12:10:38;100196.63;;;21.28;80.41
10881;BME280;5493;48.884;8.338;2023-03-21T12:13:31;100192.53;;;21.92;83.24
10881;BME280;5493;48.884;8.338;2023-03-21T12:16:12;100192.22;;;21.27;81.01
10881;BME280;5493;48.884;8.338;2023-03-21T12:18:58;100190.22;;;20.56;84.43
10881;BME280;5493;48.884;8.338;2023-03-21T12:21:32;100181.50;;;20.49;85.32
10881;BME280;5493;48.884;8.338;2023-03-21T12:24:05;100189.28;;;20.66;86.00
10881;BME280;5493;48.884;8.338;2023-03-21T12:26:39;100185.91;;;21.03;83.29
10881;BME280;5493;48.884;8.338;2023-03-21T12:29:29;100180.06;;;20.86;84.66
10881;BME280;5493;48.884;8.338;2023-03-21T12:32:24;100175.75;;;21.03;81.00
10881;BME280;5493;48.884;8.338;2023-03-21T12:35:09;100167.00;;;20.78;86.68
10881;BME280;5493;48.884;8.338;2023-03-21T12:37:46;100161.88;;;20.37;86.47
10881;BME280;5493;48.884;8.338;2023-03-21T12:40:28;100167.38;;;19.98;83.37
10881;BME280;5493;48.884;8.338;2023-03-21T12:43:17;100162.63;;;20.09;84.88
10881;BME280;5493;48.884;8.338;2023-03-21T12:45:49;100152.91;;;19.49;88.24
10881;BME280;5493;48.884;8.338;2023-03-21T12:48:21;100154.78;;;19.97;90.06
10881;BME280;5493;48.884;8.338;2023-03-21T12:50:53;100148.53;;;19.43;91.63
10881;BME280;5493;48.884;8.338;2023-03-21T12:53:30;100147.06;;;20.04;91.34
10881;BME280;5493;48.884;8.338;2023-03-21T12:56:06;100140.41;;;20.15;92.27
10881;BME280;5493;48.884;8.338;2023-03-21T12:58:44;100137.63;;;20.21;89.29
10881;BME280;5493;48.884;8.338;2023-03-21T13:01:14;100137.91;;;20.19;88.11
10881;BME280;5493;48.884;8.338;2023-03-21T13:03:46;100137.41;;;20.12;89.99
10881;BME280;5493;48.884;8.338;2023-03-21T13:06:16;100134.25;;;20.34;93.19
10881;BME280;5493;48.884;8.338;2023-03-21T13:08:46;100131.09;;;20.17;89.97
10881;BME280;5493;48.884;8.338;2023-03-21T13:11:18;100132.69;;;20.23;87.85